Glendive, MT

7:56 PM MDT on July 24, 2017 (GMT -0600)
Dawson Community

Weather History for KGDV - May, 2013

Change the Weather History Date:

Tuesday, May 14, 2013

  Actual Average Record
Temperature  
Mean Temperature 60 °F -  
Max Temperature 71 °F 62 °F 84 °F (2001)
Min Temperature 50 °F 38 °F 24 °F (2004)
Degree Days  
Heating Degree Days 4    
Growing Degree Days 10 (Base 50)    
Moisture  
Dew Point 39 °F    
Average Humidity 46    
Maximum Humidity 88    
Minimum Humidity 27    
Precipitation  
Precipitation 0.00 in - - ()
Sea Level Pressure  
Sea Level Pressure 29.84 in    
Wind  
Wind Speed 19 mph (WNW)    
Max Wind Speed 37 mph    
Max Gust Speed 46 mph    
Visibility 10 miles    
Events      
Averages and records for this station are not official NWS values.
T = Trace of Precipitation, MM = Missing Value Source: NWS Daily Summary

Daily Weather History Graph

Daily Weather History Graph

Search for Another Location

Airport or City:

Trip Planner

Search our weather history database for the weather conditions in past years. The results will help you decide how hot, cold, wet, or windy it might be!

Date:

Astronomy

May. 14, 2013 Rise Set
Actual Time 5:24 AM MDT 8:27 PM MDT
Civil Twilight 4:48 AM MDT 9:03 PM MDT
Nautical Twilight 4:01 AM MDT 9:50 PM MDT
Astronomical Twilight 3:05 AM MDT 10:48 PM MDT
Moon 9:07 AM MDT (5/14) No Moon Set
Length of Visible Light 16h 15m
Length of Day
15h 03m
Waxing Crescent, 19% of the Moon is Illuminated
May 14
Waxing Crescent
May 17
First Quarter
May 24
Full
May 31
Last Quarter
Jun 8
New

Hourly Weather History & Observations

Time (MDT) Temp. Dew Point Humidity Pressure Visibility Wind Dir Wind Speed Gust Speed Precip Events Conditions
12:35 AM 69.8 °F 48.2 °F 46% 29.62 in 10.0 mi NNW 25.3 mph 32.2 mph N/A   Scattered Clouds
12:55 AM 64.4 °F 51.8 °F 64% 29.64 in 10.0 mi NNW 25.3 mph 31.1 mph N/A   Scattered Clouds
1:15 AM 62.6 °F 53.6 °F 72% 29.65 in 10.0 mi North 21.9 mph 28.8 mph N/A   Clear
1:35 AM 60.8 °F 53.6 °F 77% 29.70 in 10.0 mi NNW 25.3 mph - N/A   Clear
1:55 AM 60.8 °F 53.6 °F 77% 29.71 in 10.0 mi NNW 23.0 mph 28.8 mph N/A   Clear
2:35 AM 57.2 °F 51.8 °F 82% 29.73 in 10.0 mi NNW 16.1 mph - N/A   Clear
2:55 AM 57.2 °F 51.8 °F 82% 29.73 in 10.0 mi NNW 11.5 mph - N/A   Clear
3:15 AM 55.4 °F 51.8 °F 88% 29.75 in 10.0 mi NW 10.4 mph - N/A   Clear
3:55 AM 55.4 °F 51.8 °F 88% 29.78 in 10.0 mi WNW 6.9 mph - N/A   Clear
4:35 AM 53.6 °F 48.2 °F 82% 29.78 in 10.0 mi NNW 8.1 mph - N/A   Clear
4:55 AM 55.4 °F 50.0 °F 82% 29.79 in 10.0 mi NW 12.7 mph - N/A   Clear
5:15 AM 55.4 °F 46.4 °F 72% 29.80 in 10.0 mi NW 10.4 mph 19.6 mph N/A   Clear
5:35 AM 53.6 °F 42.8 °F 67% 29.81 in 10.0 mi WNW 9.2 mph - N/A   Clear
6:15 AM 51.8 °F 42.8 °F 71% 29.83 in 10.0 mi WSW 6.9 mph - N/A   Clear
6:35 AM 53.6 °F 46.4 °F 77% 29.83 in 10.0 mi SSW 9.2 mph - N/A   Clear
6:55 AM 55.4 °F 46.4 °F 72% 29.84 in 10.0 mi SSW 11.5 mph - N/A   Clear
7:15 AM 57.2 °F 42.8 °F 59% 29.84 in 10.0 mi WSW 13.8 mph 19.6 mph N/A   Clear
7:35 AM 60.8 °F 39.2 °F 45% 29.84 in 10.0 mi West 19.6 mph 26.5 mph N/A   Clear
8:15 AM 62.6 °F 35.6 °F 37% 29.84 in 10.0 mi WNW 28.8 mph 41.4 mph N/A   Clear
8:35 AM 62.6 °F 33.8 °F 34% 29.84 in 10.0 mi WNW 28.8 mph 46.0 mph N/A   Clear
8:55 AM 62.6 °F 33.8 °F 34% 29.85 in 10.0 mi WNW 33.4 mph 42.6 mph N/A   Clear
9:15 AM 64.4 °F 33.8 °F 32% 29.86 in 10.0 mi WNW 33.4 mph 43.7 mph N/A   Clear
9:55 AM 64.4 °F 35.6 °F 34% 29.87 in 10.0 mi WNW 32.2 mph 43.7 mph N/A   Clear
10:15 AM 64.4 °F 33.8 °F 32% 29.87 in 10.0 mi WNW 27.6 mph 42.6 mph N/A   Clear
10:35 AM 66.2 °F 35.6 °F 32% 29.87 in 10.0 mi WNW 36.8 mph 44.9 mph N/A   Clear
10:55 AM 66.2 °F 35.6 °F 32% 29.88 in 10.0 mi WNW 34.5 mph 40.3 mph N/A   Clear
11:15 AM 66.2 °F 35.6 °F 32% 29.89 in 10.0 mi WNW 26.5 mph 38.0 mph N/A   Clear
11:35 AM 66.2 °F 37.4 °F 35% 29.90 in 10.0 mi WNW 28.8 mph 34.5 mph N/A   Clear
11:55 AM 66.2 °F 35.6 °F 32% 29.90 in 10.0 mi NW 29.9 mph 36.8 mph N/A   Clear
12:15 PM 68.0 °F 37.4 °F 33% 29.89 in 10.0 mi WNW 29.9 mph 39.1 mph N/A   Clear
12:35 PM 68.0 °F 37.4 °F 33% 29.89 in 10.0 mi WNW 26.5 mph 34.5 mph N/A   Clear
1:16 PM 69.8 °F 37.4 °F 31% 29.88 in 10.0 mi NW 26.5 mph 32.2 mph N/A   Clear
1:35 PM 69.8 °F 37.4 °F 31% 29.88 in 10.0 mi NW 24.2 mph 33.4 mph N/A   Clear
1:55 PM 69.8 °F 37.4 °F 31% 29.89 in 10.0 mi WNW 16.1 mph 26.5 mph N/A   Clear
2:35 PM 69.8 °F 37.4 °F 31% 29.88 in 10.0 mi WNW 20.7 mph 26.5 mph N/A   Clear
2:55 PM 71.6 °F 37.4 °F 29% 29.88 in 10.0 mi WNW 20.7 mph 25.3 mph N/A   Partly Cloudy
3:15 PM 71.6 °F 37.4 °F 29% 29.87 in 10.0 mi NNW 15.0 mph 23.0 mph N/A   Partly Cloudy
3:55 PM 71.6 °F 35.6 °F 27% 29.86 in 10.0 mi NW 17.3 mph 24.2 mph N/A   Clear
4:15 PM 71.6 °F 35.6 °F 27% 29.86 in 10.0 mi NW 18.4 mph 25.3 mph N/A   Clear
4:35 PM 71.6 °F 37.4 °F 29% 29.86 in 10.0 mi NNW 12.7 mph 25.3 mph N/A   Clear
4:55 PM 71.6 °F 37.4 °F 29% 29.86 in 10.0 mi NW 16.1 mph - N/A   Clear
5:15 PM 71.6 °F 35.6 °F 27% 29.86 in 10.0 mi NNW 15.0 mph 18.4 mph N/A   Clear
5:35 PM 69.8 °F 35.6 °F 28% 29.86 in 10.0 mi NW 12.7 mph 20.7 mph N/A   Clear
5:55 PM 69.8 °F 35.6 °F 28% 29.86 in 10.0 mi NW 11.5 mph 23.0 mph N/A   Clear
6:35 PM 69.8 °F 35.6 °F 28% 29.86 in 10.0 mi NW 12.7 mph - N/A   Clear
6:55 PM 69.8 °F 33.8 °F 27% 29.86 in 10.0 mi NNW 11.5 mph - N/A   Clear
7:15 PM 66.2 °F 35.6 °F 32% 29.86 in 10.0 mi NNW 10.4 mph - N/A   Clear
7:35 PM 62.6 °F 35.6 °F 37% 29.86 in 10.0 mi NNW 8.1 mph - N/A   Clear
7:55 PM 60.8 °F 35.6 °F 39% 29.88 in 10.0 mi NW 8.1 mph - N/A   Clear
8:15 PM 60.8 °F 33.8 °F 36% 29.88 in 10.0 mi NW 5.8 mph - N/A   Clear
8:35 PM 59.0 °F 32.0 °F 36% 29.88 in 10.0 mi NW 5.8 mph - N/A   Clear
8:55 PM 57.2 °F 32.0 °F 38% 29.89 in 10.0 mi NW 4.6 mph - N/A   Clear
9:16 PM 53.6 °F 30.2 °F 41% 29.90 in 10.0 mi Calm Calm - N/A   Clear
9:35 PM 51.8 °F 33.8 °F 50% 29.90 in 10.0 mi West 5.8 mph - N/A   Clear
9:55 PM 50.0 °F 33.8 °F 54% 29.91 in 10.0 mi West 5.8 mph - N/A   Clear
10:15 PM 51.8 °F 33.8 °F 50% 29.91 in 10.0 mi West 4.6 mph - N/A   Clear
10:55 PM 51.8 °F 33.8 °F 50% 29.92 in 10.0 mi WSW 5.8 mph - N/A   Clear
11:15 PM 51.8 °F 35.6 °F 54% 29.92 in 10.0 mi WSW 8.1 mph - N/A   Clear
11:55 PM 51.8 °F 33.8 °F 50% 29.93 in 10.0 mi West 8.1 mph - N/A   Scattered Clouds